sensor_id;sensor_type;location;lat;lon;timestamp;P1;durP1;ratioP1;P2;durP2;ratioP2
53299;SDS011;39187;48.476;8.310;2023-04-21T00:27:10;16.60;;;14.40;;
53299;SDS011;39187;48.476;8.310;2023-04-21T00:29:36;23.70;;;14.80;;
53299;SDS011;39187;48.476;8.310;2023-04-21T00:32:03;16.37;;;13.90;;
53299;SDS011;39187;48.476;8.310;2023-04-21T00:34:33;14.03;;;12.20;;
53299;SDS011;39187;48.476;8.310;2023-04-21T00:36:58;14.73;;;12.53;;
53299;SDS011;39187;48.476;8.310;2023-04-21T00:39:24;15.83;;;12.77;;
53299;SDS011;39187;48.476;8.310;2023-04-21T00:41:50;19.30;;;14.20;;
53299;SDS011;39187;48.476;8.310;2023-04-21T00:44:15;14.97;;;13.27;;
53299;SDS011;39187;48.476;8.310;2023-04-21T00:46:41;13.60;;;12.07;;
53299;SDS011;39187;48.476;8.310;2023-04-21T00:49:07;13.93;;;12.30;;
53299;SDS011;39187;48.476;8.310;2023-04-21T00:51:33;14.07;;;12.57;;
53299;SDS011;39187;48.476;8.310;2023-04-21T00:54:03;14.23;;;12.77;;
53299;SDS011;39187;48.476;8.310;2023-04-21T00:56:30;16.07;;;12.50;;
53299;SDS011;39187;48.476;8.310;2023-04-21T00:58:57;11.97;;;10.80;;
53299;SDS011;39187;48.476;8.310;2023-04-21T01:01:23;11.33;;;10.23;;
53299;SDS011;39187;48.476;8.310;2023-04-21T01:03:49;12.10;;;10.80;;
53299;SDS011;39187;48.476;8.310;2023-04-21T01:06:16;15.20;;;12.20;;
53299;SDS011;39187;48.476;8.310;2023-04-21T01:08:42;11.90;;;10.70;;
53299;SDS011;39187;48.476;8.310;2023-04-21T01:11:11;13.67;;;11.13;;
53299;SDS011;39187;48.476;8.310;2023-04-21T01:13:38;13.20;;;11.77;;
53299;SDS011;39187;48.476;8.310;2023-04-21T01:16:04;14.87;;;12.10;;
53299;SDS011;39187;48.476;8.310;2023-04-21T01:18:30;15.60;;;13.90;;
53299;SDS011;39187;48.476;8.310;2023-04-21T01:20:56;14.77;;;13.10;;
53299;SDS011;39187;48.476;8.310;2023-04-21T01:23:22;14.50;;;11.97;;
53299;SDS011;39187;48.476;8.310;2023-04-21T01:25:49;14.53;;;12.93;;
53299;SDS011;39187;48.476;8.310;2023-04-21T01:28:20;12.10;;;10.90;;
53299;SDS011;39187;48.476;8.310;2023-04-21T01:30:46;14.10;;;10.80;;
53299;SDS011;39187;48.476;8.310;2023-04-21T01:33:12;13.70;;;11.93;;
53299;SDS011;39187;48.476;8.310;2023-04-21T01:35:38;14.47;;;13.10;;
53299;SDS011;39187;48.476;8.310;2023-04-21T01:38:04;17.50;;;13.37;;
53299;SDS011;39187;48.476;8.310;2023-04-21T01:40:30;16.00;;;12.93;;
53299;SDS011;39187;48.476;8.310;2023-04-21T01:42:56;14.93;;;12.77;;
53299;SDS011;39187;48.476;8.310;2023-04-21T01:45:21;17.13;;;13.30;;
53299;SDS011;39187;48.476;8.310;2023-04-21T01:47:47;14.57;;;13.07;;
53299;SDS011;39187;48.476;8.310;2023-04-21T01:50:12;17.17;;;13.50;;
53299;SDS011;39187;48.476;8.310;2023-04-21T01:52:38;13.97;;;12.23;;
53299;SDS011;39187;48.476;8.310;2023-04-21T01:55:04;16.90;;;13.43;;
53299;SDS011;39187;48.476;8.310;2023-04-21T01:57:30;13.90;;;12.40;;
53299;SDS011;39187;48.476;8.310;2023-04-21T01:59:55;17.37;;;13.90;;
53299;SDS011;39187;48.476;8.310;2023-04-21T02:02:21;15.70;;;12.80;;
53299;SDS011;39187;48.476;8.310;2023-04-21T02:04:47;15.20;;;13.70;;
53299;SDS011;39187;48.476;8.310;2023-04-21T02:07:12;28.87;;;14.90;;
53299;SDS011;39187;48.476;8.310;2023-04-21T02:09:38;30.93;;;14.90;;
53299;SDS011;39187;48.476;8.310;2023-04-21T02:12:03;27.03;;;14.67;;
53299;SDS011;39187;48.476;8.310;2023-04-21T02:14:29;70.40;;;16.97;;
53299;SDS011;39187;48.476;8.310;2023-04-21T02:16:54;40.93;;;13.70;;
53299;SDS011;39187;48.476;8.310;2023-04-21T02:19:20;99.77;;;17.57;;
53299;SDS011;39187;48.476;8.310;2023-04-21T02:21:45;94.20;;;15.67;;
53299;SDS011;39187;48.476;8.310;2023-04-21T02:24:11;100.77;;;16.50;;
53299;SDS011;39187;48.476;8.310;2023-04-21T02:26:36;55.20;;;14.10;;
53299;SDS011;39187;48.476;8.310;2023-04-21T02:29:02;65.00;;;16.13;;
53299;SDS011;39187;48.476;8.310;2023-04-21T02:31:28;23.83;;;15.60;;
53299;SDS011;39187;48.476;8.310;2023-04-21T02:33:53;46.73;;;15.43;;
53299;SDS011;39187;48.476;8.310;2023-04-21T02:36:19;34.20;;;15.90;;
53299;SDS011;39187;48.476;8.310;2023-04-21T02:38:45;68.13;;;15.43;;
53299;SDS011;39187;48.476;8.310;2023-04-21T02:41:11;29.37;;;13.40;;
53299;SDS011;39187;48.476;8.310;2023-04-21T02:43:36;15.97;;;12.67;;
53299;SDS011;39187;48.476;8.310;2023-04-21T02:46:08;20.43;;;13.30;;
53299;SDS011;39187;48.476;8.310;2023-04-21T02:48:34;54.23;;;15.50;;
53299;SDS011;39187;48.476;8.310;2023-04-21T02:51:00;13.90;;;11.83;;
53299;SDS011;39187;48.476;8.310;2023-04-21T02:53:26;12.77;;;11.30;;
53299;SDS011;39187;48.476;8.310;2023-04-21T02:55:51;34.17;;;12.87;;
53299;SDS011;39187;48.476;8.310;2023-04-21T02:58:17;42.33;;;12.80;;
53299;SDS011;39187;48.476;8.310;2023-04-21T03:00:43;15.23;;;11.70;;
53299;SDS011;39187;48.476;8.310;2023-04-21T03:03:08;16.13;;;12.00;;
53299;SDS011;39187;48.476;8.310;2023-04-21T03:05:34;13.60;;;11.80;;
53299;SDS011;39187;48.476;8.310;2023-04-21T03:08:00;14.30;;;10.30;;
53299;SDS011;39187;48.476;8.310;2023-04-21T03:10:25;12.70;;;9.50;;
53299;SDS011;39187;48.476;8.310;2023-04-21T03:12:51;10.00;;;8.60;;
53299;SDS011;39187;48.476;8.310;2023-04-21T03:15:17;10.60;;;9.60;;
53299;SDS011;39187;48.476;8.310;2023-04-21T03:17:43;9.73;;;8.70;;
53299;SDS011;39187;48.476;8.310;2023-04-21T03:20:09;10.17;;;9.37;;
53299;SDS011;39187;48.476;8.310;2023-04-21T03:22:35;10.00;;;9.00;;
53299;SDS011;39187;48.476;8.310;2023-04-21T03:25:01;8.60;;;7.90;;
53299;SDS011;39187;48.476;8.310;2023-04-21T03:27:29;8.90;;;7.97;;
53299;SDS011;39187;48.476;8.310;2023-04-21T03:29:54;8.93;;;8.13;;
53299;SDS011;39187;48.476;8.310;2023-04-21T03:32:20;8.23;;;7.53;;
53299;SDS011;39187;48.476;8.310;2023-04-21T03:34:46;7.30;;;6.90;;
53299;SDS011;39187;48.476;8.310;2023-04-21T03:37:11;7.60;;;7.00;;
53299;SDS011;39187;48.476;8.310;2023-04-21T03:39:37;9.67;;;8.67;;
53299;SDS011;39187;48.476;8.310;2023-04-21T03:42:02;8.87;;;8.07;;
53299;SDS011;39187;48.476;8.310;2023-04-21T03:44:29;10.70;;;9.60;;
53299;SDS011;39187;48.476;8.310;2023-04-21T03:46:54;35.43;;;10.27;;
53299;SDS011;39187;48.476;8.310;2023-04-21T03:49:21;10.03;;;8.67;;
53299;SDS011;39187;48.476;8.310;2023-04-21T03:51:47;9.93;;;8.90;;
53299;SDS011;39187;48.476;8.310;2023-04-21T03:54:12;10.47;;;8.90;;
53299;SDS011;39187;48.476;8.310;2023-04-21T03:56:38;9.50;;;8.47;;
53299;SDS011;39187;48.476;8.310;2023-04-21T03:59:03;8.57;;;7.77;;
53299;SDS011;39187;48.476;8.310;2023-04-21T04:01:30;7.60;;;6.80;;
53299;SDS011;39187;48.476;8.310;2023-04-21T04:03:56;5.93;;;5.63;;
53299;SDS011;39187;48.476;8.310;2023-04-21T04:06:21;6.77;;;6.20;;
53299;SDS011;39187;48.476;8.310;2023-04-21T04:08:47;6.47;;;5.97;;
53299;SDS011;39187;48.476;8.310;2023-04-21T04:11:12;5.63;;;5.33;;
53299;SDS011;39187;48.476;8.310;2023-04-21T04:13:38;5.30;;;5.00;;
53299;SDS011;39187;48.476;8.310;2023-04-21T04:16:03;4.80;;;4.60;;
53299;SDS011;39187;48.476;8.310;2023-04-21T04:18:29;4.80;;;4.60;;
53299;SDS011;39187;48.476;8.310;2023-04-21T04:20:55;4.13;;;3.93;;
53299;SDS011;39187;48.476;8.310;2023-04-21T04:23:20;3.90;;;3.00;;
53299;SDS011;39187;48.476;8.310;2023-04-21T04:25:46;3.70;;;3.50;;
53299;SDS011;39187;48.476;8.310;2023-04-21T04:28:12;3.70;;;3.50;;
53299;SDS011;39187;48.476;8.310;2023-04-21T04:30:37;2.80;;;2.70;;
53299;SDS011;39187;48.476;8.310;2023-04-21T04:33:03;2.70;;;2.60;;
53299;SDS011;39187;48.476;8.310;2023-04-21T04:35:29;3.80;;;2.70;;
53299;SDS011;39187;48.476;8.310;2023-04-21T04:37:54;1.90;;;1.80;;
53299;SDS011;39187;48.476;8.310;2023-04-21T04:40:21;3.67;;;1.93;;
53299;SDS011;39187;48.476;8.310;2023-04-21T04:42:46;1.80;;;1.70;;
53299;SDS011;39187;48.476;8.310;2023-04-21T04:45:13;1.53;;;1.43;;
53299;SDS011;39187;48.476;8.310;2023-04-21T04:47:40;1.50;;;1.40;;
53299;SDS011;39187;48.476;8.310;2023-04-21T04:50:06;1.70;;;1.60;;
53299;SDS011;39187;48.476;8.310;2023-04-21T04:52:32;3.63;;;1.80;;
53299;SDS011;39187;48.476;8.310;2023-04-21T04:54:57;1.70;;;1.60;;
53299;SDS011;39187;48.476;8.310;2023-04-21T04:57:23;1.53;;;1.43;;
53299;SDS011;39187;48.476;8.310;2023-04-21T04:59:52;8.93;;;1.80;;
53299;SDS011;39187;48.476;8.310;2023-04-21T05:02:19;1.57;;;1.30;;
53299;SDS011;39187;48.476;8.310;2023-04-21T05:04:46;1.77;;;1.33;;
53299;SDS011;39187;48.476;8.310;2023-04-21T05:07:12;1.33;;;1.23;;
53299;SDS011;39187;48.476;8.310;2023-04-21T05:09:37;1.87;;;1.77;;
53299;SDS011;39187;48.476;8.310;2023-04-21T05:12:03;1.47;;;1.40;;
53299;SDS011;39187;48.476;8.310;2023-04-21T05:14:28;1.80;;;1.60;;
53299;SDS011;39187;48.476;8.310;2023-04-21T05:16:54;1.63;;;1.53;;
53299;SDS011;39187;48.476;8.310;2023-04-21T05:19:19;1.10;;;1.10;;
53299;SDS011;39187;48.476;8.310;2023-04-21T05:21:45;1.70;;;1.60;;
53299;SDS011;39187;48.476;8.310;2023-04-21T05:24:10;1.60;;;1.50;;
53299;SDS011;39187;48.476;8.310;2023-04-21T05:26:36;1.93;;;1.20;;
53299;SDS011;39187;48.476;8.310;2023-04-21T05:29:01;2.10;;;2.00;;
53299;SDS011;39187;48.476;8.310;2023-04-21T05:31:27;1.70;;;1.60;;
53299;SDS011;39187;48.476;8.310;2023-04-21T05:33:53;1.30;;;1.20;;
53299;SDS011;39187;48.476;8.310;2023-04-21T05:36:18;1.73;;;1.20;;
53299;SDS011;39187;48.476;8.310;2023-04-21T05:38:48;1.23;;;1.23;;
53299;SDS011;39187;48.476;8.310;2023-04-21T05:41:14;1.90;;;1.80;;
53299;SDS011;39187;48.476;8.310;2023-04-21T05:43:40;1.40;;;1.30;;
53299;SDS011;39187;48.476;8.310;2023-04-21T05:46:07;1.63;;;1.30;;
53299;SDS011;39187;48.476;8.310;2023-04-21T05:48:34;1.70;;;1.60;;
53299;SDS011;39187;48.476;8.310;2023-04-21T05:51:09;1.20;;;1.20;;
53299;SDS011;39187;48.476;8.310;2023-04-21T05:53:40;1.70;;;1.60;;
53299;SDS011;39187;48.476;8.310;2023-04-21T05:56:07;1.80;;;1.20;;
53299;SDS011;39187;48.476;8.310;2023-04-21T05:58:33;1.30;;;1.30;;
53299;SDS011;39187;48.476;8.310;2023-04-21T06:00:59;2.13;;;1.43;;
53299;SDS011;39187;48.476;8.310;2023-04-21T06:03:24;1.00;;;1.00;;
53299;SDS011;39187;48.476;8.310;2023-04-21T06:05:55;3.87;;;3.67;;
53299;SDS011;39187;48.476;8.310;2023-04-21T06:08:22;1.70;;;1.60;;
53299;SDS011;39187;48.476;8.310;2023-04-21T06:10:47;1.80;;;1.70;;
53299;SDS011;39187;48.476;8.310;2023-04-21T06:13:13;1.97;;;1.87;;
53299;SDS011;39187;48.476;8.310;2023-04-21T06:15:39;1.10;;;1.10;;
53299;SDS011;39187;48.476;8.310;2023-04-21T06:18:04;0.80;;;0.80;;
53299;SDS011;39187;48.476;8.310;2023-04-21T06:20:30;0.83;;;0.83;;
53299;SDS011;39187;48.476;8.310;2023-04-21T06:22:55;1.00;;;1.00;;
53299;SDS011;39187;48.476;8.310;2023-04-21T06:25:21;1.50;;;1.40;;
53299;SDS011;39187;48.476;8.310;2023-04-21T06:27:47;0.97;;;0.97;;
53299;SDS011;39187;48.476;8.310;2023-04-21T06:30:12;4.10;;;1.23;;
53299;SDS011;39187;48.476;8.310;2023-04-21T06:32:38;0.90;;;0.90;;
53299;SDS011;39187;48.476;8.310;2023-04-21T06:35:04;0.90;;;0.90;;
53299;SDS011;39187;48.476;8.310;2023-04-21T06:37:30;1.03;;;1.03;;
53299;SDS011;39187;48.476;8.310;2023-04-21T06:39:56;1.70;;;1.57;;
53299;SDS011;39187;48.476;8.310;2023-04-21T06:42:21;0.93;;;0.93;;
53299;SDS011;39187;48.476;8.310;2023-04-21T06:44:47;0.83;;;0.73;;
53299;SDS011;39187;48.476;8.310;2023-04-21T06:47:12;1.00;;;1.00;;
53299;SDS011;39187;48.476;8.310;2023-04-21T06:49:38;1.40;;;1.30;;
53299;SDS011;39187;48.476;8.310;2023-04-21T06:52:04;0.80;;;0.60;;
53299;SDS011;39187;48.476;8.310;2023-04-21T06:54:29;0.73;;;0.73;;
53299;SDS011;39187;48.476;8.310;2023-04-21T06:56:55;1.23;;;0.80;;
53299;SDS011;39187;48.476;8.310;2023-04-21T06:59:21;0.87;;;0.87;;
53299;SDS011;39187;48.476;8.310;2023-04-21T07:01:47;0.80;;;0.80;;
53299;SDS011;39187;48.476;8.310;2023-04-21T07:04:16;1.00;;;0.80;;
53299;SDS011;39187;48.476;8.310;2023-04-21T07:06:42;0.80;;;0.80;;
53299;SDS011;39187;48.476;8.310;2023-04-21T07:09:07;1.90;;;0.90;;
53299;SDS011;39187;48.476;8.310;2023-04-21T07:11:33;0.80;;;0.80;;
53299;SDS011;39187;48.476;8.310;2023-04-21T07:13:59;0.80;;;0.80;;
53299;SDS011;39187;48.476;8.310;2023-04-21T07:16:26;0.60;;;0.60;;
53299;SDS011;39187;48.476;8.310;2023-04-21T07:18:52;1.57;;;1.47;;
53299;SDS011;39187;48.476;8.310;2023-04-21T07:21:18;0.80;;;0.80;;
53299;SDS011;39187;48.476;8.310;2023-04-21T07:23:44;1.53;;;0.70;;
53299;SDS011;39187;48.476;8.310;2023-04-21T07:26:09;1.20;;;1.10;;
53299;SDS011;39187;48.476;8.310;2023-04-21T07:28:36;0.80;;;0.80;;
53299;SDS011;39187;48.476;8.310;2023-04-21T07:31:02;1.30;;;0.60;;
53299;SDS011;39187;48.476;8.310;2023-04-21T07:33:27;1.23;;;1.13;;
53299;SDS011;39187;48.476;8.310;2023-04-21T07:35:53;0.90;;;0.90;;
53299;SDS011;39187;48.476;8.310;2023-04-21T07:38:18;0.83;;;0.83;;
53299;SDS011;39187;48.476;8.310;2023-04-21T07:40:44;0.80;;;0.80;;
53299;SDS011;39187;48.476;8.310;2023-04-21T07:43:09;1.00;;;0.83;;
53299;SDS011;39187;48.476;8.310;2023-04-21T07:45:35;0.80;;;0.80;;
53299;SDS011;39187;48.476;8.310;2023-04-21T07:48:00;0.80;;;0.80;;
53299;SDS011;39187;48.476;8.310;2023-04-21T07:50:26;1.30;;;1.20;;
53299;SDS011;39187;48.476;8.310;2023-04-21T07:52:52;1.10;;;1.00;;
53299;SDS011;39187;48.476;8.310;2023-04-21T07:55:17;1.43;;;0.80;;
53299;SDS011;39187;48.476;8.310;2023-04-21T07:57:43;0.80;;;0.80;;
53299;SDS011;39187;48.476;8.310;2023-04-21T08:00:08;0.60;;;0.60;;
53299;SDS011;39187;48.476;8.310;2023-04-21T08:02:34;0.93;;;0.83;;
53299;SDS011;39187;48.476;8.310;2023-04-21T08:05:00;0.70;;;0.70;;
53299;SDS011;39187;48.476;8.310;2023-04-21T08:07:25;1.00;;;0.73;;
53299;SDS011;39187;48.476;8.310;2023-04-21T08:09:51;1.17;;;0.90;;
53299;SDS011;39187;48.476;8.310;2023-04-21T08:12:16;0.67;;;0.67;;
53299;SDS011;39187;48.476;8.310;2023-04-21T08:14:42;0.80;;;0.80;;
53299;SDS011;39187;48.476;8.310;2023-04-21T08:17:07;0.60;;;0.60;;
53299;SDS011;39187;48.476;8.310;2023-04-21T08:19:33;0.90;;;0.70;;
53299;SDS011;39187;48.476;8.310;2023-04-21T08:21:58;1.37;;;0.80;;
53299;SDS011;39187;48.476;8.310;2023-04-21T08:24:24;1.77;;;1.00;;
53299;SDS011;39187;48.476;8.310;2023-04-21T08:26:50;0.67;;;0.67;;
53299;SDS011;39187;48.476;8.310;2023-04-21T08:29:15;0.70;;;0.70;;
53299;SDS011;39187;48.476;8.310;2023-04-21T08:31:41;0.60;;;0.60;;
53299;SDS011;39187;48.476;8.310;2023-04-21T08:34:06;0.70;;;0.70;;
53299;SDS011;39187;48.476;8.310;2023-04-21T08:36:32;4.93;;;0.70;;
53299;SDS011;39187;48.476;8.310;2023-04-21T08:38:58;0.80;;;0.80;;
53299;SDS011;39187;48.476;8.310;2023-04-21T08:41:24;0.60;;;0.60;;
53299;SDS011;39187;48.476;8.310;2023-04-21T08:43:50;1.07;;;0.70;;
53299;SDS011;39187;48.476;8.310;2023-04-21T08:46:16;0.70;;;0.70;;
53299;SDS011;39187;48.476;8.310;2023-04-21T08:48:43;0.57;;;0.53;;
53299;SDS011;39187;48.476;8.310;2023-04-21T08:51:10;4.13;;;1.07;;
53299;SDS011;39187;48.476;8.310;2023-04-21T08:53:42;3.83;;;1.00;;
53299;SDS011;39187;48.476;8.310;2023-04-21T08:56:08;1.60;;;0.60;;
53299;SDS011;39187;48.476;8.310;2023-04-21T08:58:34;1.13;;;1.13;;
53299;SDS011;39187;48.476;8.310;2023-04-21T09:00:59;0.73;;;0.73;;
53299;SDS011;39187;48.476;8.310;2023-04-21T09:03:25;0.67;;;0.67;;
53299;SDS011;39187;48.476;8.310;2023-04-21T09:05:58;1.17;;;0.70;;
53299;SDS011;39187;48.476;8.310;2023-04-21T09:08:26;0.60;;;0.60;;
53299;SDS011;39187;48.476;8.310;2023-04-21T09:10:53;0.60;;;0.60;;
53299;SDS011;39187;48.476;8.310;2023-04-21T09:13:19;0.70;;;0.70;;
53299;SDS011;39187;48.476;8.310;2023-04-21T09:15:48;0.80;;;0.80;;
53299;SDS011;39187;48.476;8.310;2023-04-21T09:18:19;2.50;;;1.80;;
53299;SDS011;39187;48.476;8.310;2023-04-21T09:20:48;0.60;;;0.60;;
53299;SDS011;39187;48.476;8.310;2023-04-21T09:23:15;2.00;;;0.60;;
53299;SDS011;39187;48.476;8.310;2023-04-21T09:25:42;2.10;;;0.80;;
53299;SDS011;39187;48.476;8.310;2023-04-21T09:28:09;0.67;;;0.67;;
53299;SDS011;39187;48.476;8.310;2023-04-21T09:30:36;0.80;;;0.70;;
53299;SDS011;39187;48.476;8.310;2023-04-21T09:33:02;0.60;;;0.60;;
53299;SDS011;39187;48.476;8.310;2023-04-21T09:35:31;0.97;;;0.80;;
53299;SDS011;39187;48.476;8.310;2023-04-21T09:37:59;0.97;;;0.97;;
53299;SDS011;39187;48.476;8.310;2023-04-21T09:40:27;1.33;;;0.90;;
53299;SDS011;39187;48.476;8.310;2023-04-21T09:42:53;0.80;;;0.77;;
53299;SDS011;39187;48.476;8.310;2023-04-21T09:45:19;0.83;;;0.83;;
53299;SDS011;39187;48.476;8.310;2023-04-21T09:47:47;0.83;;;0.83;;
53299;SDS011;39187;48.476;8.310;2023-04-21T09:50:16;0.70;;;0.70;;
53299;SDS011;39187;48.476;8.310;2023-04-21T09:52:42;1.30;;;1.20;;
53299;SDS011;39187;48.476;8.310;2023-04-21T09:55:10;0.80;;;0.80;;
53299;SDS011;39187;48.476;8.310;2023-04-21T09:57:37;0.73;;;0.73;;
53299;SDS011;39187;48.476;8.310;2023-04-21T10:00:04;0.70;;;0.70;;
53299;SDS011;39187;48.476;8.310;2023-04-21T10:02:33;1.33;;;1.23;;
53299;SDS011;39187;48.476;8.310;2023-04-21T10:05:04;0.97;;;0.97;;
53299;SDS011;39187;48.476;8.310;2023-04-21T10:07:31;0.80;;;0.80;;
53299;SDS011;39187;48.476;8.310;2023-04-21T10:09:57;0.80;;;0.80;;
53299;SDS011;39187;48.476;8.310;2023-04-21T10:12:25;1.50;;;1.40;;
53299;SDS011;39187;48.476;8.310;2023-04-21T10:14:52;1.70;;;1.30;;
53299;SDS011;39187;48.476;8.310;2023-04-21T10:17:21;2.60;;;1.77;;
53299;SDS011;39187;48.476;8.310;2023-04-21T10:19:54;1.73;;;1.60;;
53299;SDS011;39187;48.476;8.310;2023-04-21T10:22:31;1.83;;;1.73;;
53299;SDS011;39187;48.476;8.310;2023-04-21T10:24:58;2.67;;;2.43;;
53299;SDS011;39187;48.476;8.310;2023-04-21T10:27:41;2.17;;;2.07;;
53299;SDS011;39187;48.476;8.310;2023-04-21T10:30:17;1.47;;;1.37;;
53299;SDS011;39187;48.476;8.310;2023-04-21T10:32:44;1.53;;;1.43;;
53299;SDS011;39187;48.476;8.310;2023-04-21T10:35:12;1.50;;;1.40;;
53299;SDS011;39187;48.476;8.310;2023-04-21T10:37:48;1.80;;;1.70;;
53299;SDS011;39187;48.476;8.310;2023-04-21T10:42:55;1.27;;;1.20;;
53299;SDS011;39187;48.476;8.310;2023-04-21T10:45:23;2.50;;;1.63;;
53299;SDS011;39187;48.476;8.310;2023-04-21T10:47:50;1.60;;;1.50;;
53299;SDS011;39187;48.476;8.310;2023-04-21T10:50:20;3.57;;;0.93;;
53299;SDS011;39187;48.476;8.310;2023-04-21T10:55:32;1.27;;;1.17;;
53299;SDS011;39187;48.476;8.310;2023-04-21T10:57:59;1.50;;;1.40;;
53299;SDS011;39187;48.476;8.310;2023-04-21T11:00:26;1.70;;;1.60;;
53299;SDS011;39187;48.476;8.310;2023-04-21T11:02:53;1.40;;;1.30;;
53299;SDS011;39187;48.476;8.310;2023-04-21T11:05:25;1.10;;;1.10;;
53299;SDS011;39187;48.476;8.310;2023-04-21T11:08:00;1.60;;;1.53;;
53299;SDS011;39187;48.476;8.310;2023-04-21T11:10:40;1.60;;;1.60;;
53299;SDS011;39187;48.476;8.310;2023-04-21T11:13:06;1.77;;;1.67;;
53299;SDS011;39187;48.476;8.310;2023-04-21T11:15:32;2.63;;;2.43;;
53299;SDS011;39187;48.476;8.310;2023-04-21T11:17:57;1.90;;;1.80;;
53299;SDS011;39187;48.476;8.310;2023-04-21T11:20:23;1.90;;;1.80;;
53299;SDS011;39187;48.476;8.310;2023-04-21T11:22:51;1.40;;;1.30;;
53299;SDS011;39187;48.476;8.310;2023-04-21T11:25:17;1.80;;;1.70;;
53299;SDS011;39187;48.476;8.310;2023-04-21T11:27:51;3.00;;;2.33;;
53299;SDS011;39187;48.476;8.310;2023-04-21T11:30:29;3.40;;;1.67;;
53299;SDS011;39187;48.476;8.310;2023-04-21T11:32:56;1.73;;;1.63;;
53299;SDS011;39187;48.476;8.310;2023-04-21T11:35:22;1.97;;;1.87;;
53299;SDS011;39187;48.476;8.310;2023-04-21T11:37:48;2.10;;;2.00;;
53299;SDS011;39187;48.476;8.310;2023-04-21T11:40:15;1.83;;;1.73;;
53299;SDS011;39187;48.476;8.310;2023-04-21T11:42:41;2.10;;;1.90;;
53299;SDS011;39187;48.476;8.310;2023-04-21T11:45:07;2.23;;;2.13;;
53299;SDS011;39187;48.476;8.310;2023-04-21T11:47:40;2.00;;;1.90;;
53299;SDS011;39187;48.476;8.310;2023-04-21T11:50:05;3.33;;;1.77;;
53299;SDS011;39187;48.476;8.310;2023-04-21T11:52:32;1.57;;;1.47;;
53299;SDS011;39187;48.476;8.310;2023-04-21T11:55:10;1.53;;;1.43;;
53299;SDS011;39187;48.476;8.310;2023-04-21T11:57:39;1.50;;;1.40;;
53299;SDS011;39187;48.476;8.310;2023-04-21T12:00:06;1.03;;;1.03;;
53299;SDS011;39187;48.476;8.310;2023-04-21T12:02:37;1.07;;;0.90;;
53299;SDS011;39187;48.476;8.310;2023-04-21T12:05:03;3.53;;;0.90;;
53299;SDS011;39187;48.476;8.310;2023-04-21T12:07:33;2.50;;;1.10;;
53299;SDS011;39187;48.476;8.310;2023-04-21T12:10:01;2.17;;;0.97;;
53299;SDS011;39187;48.476;8.310;2023-04-21T12:12:32;0.87;;;0.87;;
53299;SDS011;39187;48.476;8.310;2023-04-21T12:15:02;0.87;;;0.87;;
53299;SDS011;39187;48.476;8.310;2023-04-21T12:17:33;1.30;;;1.20;;
53299;SDS011;39187;48.476;8.310;2023-04-21T12:20:03;0.90;;;0.90;;
53299;SDS011;39187;48.476;8.310;2023-04-21T12:22:30;3.17;;;1.10;;
53299;SDS011;39187;48.476;8.310;2023-04-21T12:24:56;1.07;;;1.07;;
53299;SDS011;39187;48.476;8.310;2023-04-21T12:27:21;1.13;;;1.03;;
53299;SDS011;39187;48.476;8.310;2023-04-21T12:29:47;0.90;;;0.90;;
53299;SDS011;39187;48.476;8.310;2023-04-21T12:32:13;1.20;;;1.20;;
53299;SDS011;39187;48.476;8.310;2023-04-21T12:34:39;0.90;;;0.90;;
53299;SDS011;39187;48.476;8.310;2023-04-21T12:37:05;2.03;;;1.27;;
53299;SDS011;39187;48.476;8.310;2023-04-21T12:39:31;1.23;;;1.23;;
53299;SDS011;39187;48.476;8.310;2023-04-21T12:41:57;1.10;;;1.00;;
53299;SDS011;39187;48.476;8.310;2023-04-21T12:44:23;1.47;;;1.37;;
53299;SDS011;39187;48.476;8.310;2023-04-21T12:46:50;1.10;;;1.10;;
53299;SDS011;39187;48.476;8.310;2023-04-21T12:49:16;1.30;;;1.20;;
53299;SDS011;39187;48.476;8.310;2023-04-21T12:51:42;1.40;;;1.30;;
53299;SDS011;39187;48.476;8.310;2023-04-21T12:54:09;1.10;;;1.10;;
53299;SDS011;39187;48.476;8.310;2023-04-21T12:56:35;1.07;;;1.00;;
53299;SDS011;39187;48.476;8.310;2023-04-21T12:59:03;1.40;;;1.40;;
53299;SDS011;39187;48.476;8.310;2023-04-21T13:01:29;1.33;;;1.33;;
53299;SDS011;39187;48.476;8.310;2023-04-21T13:03:55;1.33;;;1.27;;
53299;SDS011;39187;48.476;8.310;2023-04-21T13:06:20;2.20;;;2.10;;
53299;SDS011;39187;48.476;8.310;2023-04-21T13:08:46;1.40;;;1.30;;
53299;SDS011;39187;48.476;8.310;2023-04-21T13:11:12;1.33;;;1.23;;
53299;SDS011;39187;48.476;8.310;2023-04-21T13:13:38;2.23;;;2.00;;
53299;SDS011;39187;48.476;8.310;2023-04-21T13:16:04;1.47;;;1.37;;
53299;SDS011;39187;48.476;8.310;2023-04-21T13:18:30;1.50;;;1.40;;
53299;SDS011;39187;48.476;8.310;2023-04-21T13:20:56;1.37;;;1.30;;
53299;SDS011;39187;48.476;8.310;2023-04-21T13:23:22;2.10;;;1.40;;
53299;SDS011;39187;48.476;8.310;2023-04-21T13:25:47;1.23;;;1.20;;
53299;SDS011;39187;48.476;8.310;2023-04-21T13:28:15;0.90;;;0.90;;
53299;SDS011;39187;48.476;8.310;2023-04-21T13:30:41;1.03;;;1.03;;
53299;SDS011;39187;48.476;8.310;2023-04-21T13:33:07;1.00;;;1.00;;
53299;SDS011;39187;48.476;8.310;2023-04-21T13:35:32;1.40;;;1.30;;
53299;SDS011;39187;48.476;8.310;2023-04-21T13:37:58;1.40;;;1.40;;
53299;SDS011;39187;48.476;8.310;2023-04-21T13:40:23;1.53;;;1.43;;
53299;SDS011;39187;48.476;8.310;2023-04-21T13:42:49;1.40;;;1.30;;
53299;SDS011;39187;48.476;8.310;2023-04-21T13:45:14;1.73;;;1.63;;
53299;SDS011;39187;48.476;8.310;2023-04-21T13:47:40;2.10;;;1.30;;
53299;SDS011;39187;48.476;8.310;2023-04-21T13:50:06;1.67;;;1.43;;
53299;SDS011;39187;48.476;8.310;2023-04-21T13:52:33;1.77;;;1.67;;
53299;SDS011;39187;48.476;8.310;2023-04-21T13:55:00;1.63;;;1.53;;
53299;SDS011;39187;48.476;8.310;2023-04-21T13:57:25;1.77;;;1.67;;
53299;SDS011;39187;48.476;8.310;2023-04-21T13:59:51;2.33;;;2.23;;
53299;SDS011;39187;48.476;8.310;2023-04-21T14:02:18;1.80;;;1.70;;
53299;SDS011;39187;48.476;8.310;2023-04-21T14:04:45;2.13;;;2.03;;
53299;SDS011;39187;48.476;8.310;2023-04-21T14:07:11;2.00;;;1.90;;
53299;SDS011;39187;48.476;8.310;2023-04-21T14:09:39;4.60;;;2.30;;
53299;SDS011;39187;48.476;8.310;2023-04-21T14:12:05;2.40;;;2.30;;
53299;SDS011;39187;48.476;8.310;2023-04-21T14:14:30;1.77;;;1.67;;
53299;SDS011;39187;48.476;8.310;2023-04-21T14:16:56;2.00;;;1.90;;
53299;SDS011;39187;48.476;8.310;2023-04-21T14:19:21;2.27;;;2.13;;
53299;SDS011;39187;48.476;8.310;2023-04-21T14:21:47;1.50;;;1.40;;
53299;SDS011;39187;48.476;8.310;2023-04-21T14:24:12;3.90;;;3.60;;
53299;SDS011;39187;48.476;8.310;2023-04-21T14:26:38;5.03;;;4.77;;
53299;SDS011;39187;48.476;8.310;2023-04-21T14:29:03;4.10;;;3.90;;
53299;SDS011;39187;48.476;8.310;2023-04-21T14:31:29;3.73;;;3.60;;
53299;SDS011;39187;48.476;8.310;2023-04-21T14:33:54;4.27;;;4.07;;
53299;SDS011;39187;48.476;8.310;2023-04-21T14:36:20;3.40;;;3.30;;
53299;SDS011;39187;48.476;8.310;2023-04-21T14:38:46;4.33;;;4.10;;
53299;SDS011;39187;48.476;8.310;2023-04-21T14:41:12;3.80;;;3.33;;
53299;SDS011;39187;48.476;8.310;2023-04-21T14:43:37;3.60;;;3.50;;
53299;SDS011;39187;48.476;8.310;2023-04-21T14:46:07;3.47;;;3.37;;
53299;SDS011;39187;48.476;8.310;2023-04-21T14:48:32;5.23;;;5.03;;
53299;SDS011;39187;48.476;8.310;2023-04-21T14:50:58;4.10;;;3.90;;
53299;SDS011;39187;48.476;8.310;2023-04-21T14:53:24;2.83;;;2.73;;
53299;SDS011;39187;48.476;8.310;2023-04-21T14:55:49;3.20;;;3.00;;
53299;SDS011;39187;48.476;8.310;2023-04-21T14:58:15;2.70;;;2.60;;
53299;SDS011;39187;48.476;8.310;2023-04-21T15:00:40;2.20;;;1.93;;
53299;SDS011;39187;48.476;8.310;2023-04-21T15:03:06;2.50;;;2.30;;
53299;SDS011;39187;48.476;8.310;2023-04-21T15:05:32;2.10;;;2.00;;
53299;SDS011;39187;48.476;8.310;2023-04-21T15:07:58;2.90;;;2.60;;
53299;SDS011;39187;48.476;8.310;2023-04-21T15:10:24;2.07;;;1.97;;